ADDS TAF Board (Experimental) INFO

IDs: Format: Expanded Condensed

Updated at: 1444 UTC 01 Feb 2015

KMCO - Orlando Intl, FL, US

Issued at 1132 UTC 01 Feb 2015
Time1353Z01/15Z01/16Z01/17Z01/18Z01/19Z01/20Z01/21Z01/22Z01/23Z02/00Z02/01Z02/02Z02/03Z
TypeOBSPRVLPRVLPRVLPRVLPRVLPRVLPRVLPRVLPRVLPRVLPRVLPRVLPRVL
VIS10>6>6>6>6>6>6>6>6>6>6>6>6>6
CIG50------------------200200200200
CoverBKNSCTSCTSCTSCTSCTSCTSCTSCTSCTBKNBKNBKNBKN
FltCat--VFRVFRVFRVFRVFRVFRVFRVFRVFRVFRVFRVFRVFR
WX----------------------------
WDirVRB150150150150150150150150150160160160160
WSpd01212121212121212126666
WGst----------------------------
R17/35
XWndVRB6666666662222
HWndVRB1010101010101010106666
R18/36
XWndVRB6666666662222
HWndVRB1010101010101010106666
Raw TAF
KMCO 011132Z 0112/0212 VRB03KT P6SM FEW040 SCT250
  FM011500 15012KT P6SM SCT040
  FM020000 16006KT P6SM FEW040 BKN200
  FM020900 18007KT P6SM SCT020 BKN120 WS010/20032KT


Raw METAR
KMCO 011353Z 00000KT 10SM SCT041 BKN050 BKN300 14/12 A3025 RMK AO2 SLP244 T01440122

TAF Board Legend

Hazard VFR MVFR IFR LIFR
Visibility (sm) >5 3≤X≤5 1≤X<3 <1
Ceiling (100 ft) >30 10≤X≤30 5≤X<10 <5
Wind Speed (kt) <10 10≤X<20 20≤X<30 ≥30
Wind Gust (kt) <15 15≤X<25 25≤X<35 ≥35
Weather No Wx Reported VCTS,-TS,-FZRA TS,FZRA +TS,+FZRA


Page loaded:  14:44 UTC  |   06:44 AM Pacific  |   07:44 AM Mountain  |   08:44 AM Central  |   09:44 AM Eastern

 

ADVISORIES

FORECASTS

FORECASTS

OBSERVATIONS

USER TOOLS

ABOUT US